createdAt,value
2019-02-14T00:00:25.492Z,64.73
2019-02-14T00:02:54.896Z,64.97
2019-02-14T00:05:24.112Z,66.21
2019-02-14T00:07:53.677Z,66.58
2019-02-14T00:10:22.903Z,66.04
2019-02-14T00:12:52.124Z,66.25
2019-02-14T00:15:21.622Z,66.63
2019-02-14T00:17:50.917Z,66.28
2019-02-14T00:20:20.137Z,66.47
2019-02-14T00:22:49.382Z,65.99
2019-02-14T00:25:18.643Z,65.61
2019-02-14T00:27:48.211Z,65.39
2019-02-14T00:30:17.667Z,65.51
2019-02-14T00:32:47.856Z,65.60
2019-02-14T00:35:24.889Z,66.13
2019-02-14T00:37:48.154Z,66.20
2019-02-14T00:40:17.727Z,65.78
2019-02-14T00:42:46.952Z,65.79
2019-02-14T00:45:16.205Z,66.39
2019-02-14T00:47:47.906Z,66.11
2019-02-14T00:50:17.205Z,66.59
2019-02-14T00:52:46.417Z,66.20
2019-02-14T00:55:16.124Z,66.13
2019-02-14T00:57:45.344Z,66.37
2019-02-14T01:00:15.031Z,66.59
2019-02-14T01:02:44.678Z,66.64
2019-02-14T01:05:16.468Z,66.40
2019-02-14T01:07:45.812Z,66.52
2019-02-14T01:10:15.073Z,66.52
2019-02-14T01:12:44.581Z,66.83
2019-02-14T01:15:15.948Z,67.25
2019-02-14T01:17:46.452Z,66.91
2019-02-14T01:20:16.048Z,67.06
2019-02-14T01:22:45.502Z,67.18
2019-02-14T01:25:16.143Z,67.28
2019-02-14T01:27:45.420Z,67.21
2019-02-14T01:30:14.862Z,67.47
2019-02-14T01:32:44.328Z,67.62
2019-02-14T01:35:13.822Z,67.20
2019-02-14T01:37:43.506Z,67.29
2019-02-14T01:40:13.490Z,67.54
2019-02-14T01:42:42.756Z,67.52
2019-02-14T01:45:12.361Z,67.64
2019-02-14T01:47:41.604Z,68.15
2019-02-14T01:50:10.872Z,67.87
2019-02-14T01:52:40.123Z,67.89
2019-02-14T01:55:09.996Z,67.80
2019-02-14T01:57:39.225Z,68.08
2019-02-14T02:00:11.834Z,68.31
2019-02-14T02:02:42.824Z,68.54
2019-02-14T02:05:12.042Z,68.88
2019-02-14T02:07:41.281Z,68.88
2019-02-14T02:10:11.939Z,68.93
2019-02-14T02:12:41.253Z,68.78
2019-02-14T02:15:12.101Z,68.54
2019-02-14T02:17:41.755Z,68.46
2019-02-14T02:20:11.950Z,68.48
2019-02-14T02:22:41.177Z,68.48
2019-02-14T02:25:11.417Z,68.75
2019-02-14T02:27:40.637Z,68.79
2019-02-14T02:30:12.085Z,68.94
2019-02-14T02:32:41.351Z,68.97
2019-02-14T02:35:11.494Z,69.06
2019-02-14T02:37:40.724Z,69.45
2019-02-14T02:40:10.423Z,69.21
2019-02-14T02:42:39.648Z,69.25
2019-02-14T02:45:10.444Z,69.59
2019-02-14T02:47:41.000Z,69.26
2019-02-14T02:50:12.444Z,69.25
2019-02-14T02:52:41.655Z,69.09
2019-02-14T02:55:11.327Z,69.25
2019-02-14T02:57:40.561Z,68.92
2019-02-14T03:00:13.472Z,68.62
2019-02-14T03:02:42.737Z,68.62
2019-02-14T03:05:13.266Z,69.17
2019-02-14T03:07:42.526Z,68.89
2019-02-14T03:10:12.465Z,69.12
2019-02-14T03:12:41.686Z,68.84
2019-02-14T03:15:12.150Z,68.89
2019-02-14T03:17:41.436Z,69.35
2019-02-14T03:20:11.416Z,69.34
2019-02-14T03:22:40.726Z,69.48
2019-02-14T03:25:12.793Z,70.03
2019-02-14T03:27:42.024Z,69.90
2019-02-14T03:30:12.056Z,69.90
2019-02-14T03:32:41.342Z,70.62
2019-02-14T03:35:10.558Z,70.62
2019-02-14T03:37:40.648Z,70.30
2019-02-14T03:40:11.051Z,70.88
2019-02-14T03:42:40.284Z,70.88
2019-02-14T03:45:12.548Z,70.85
2019-02-14T03:47:42.133Z,70.52
2019-02-14T03:50:11.661Z,70.52
2019-02-14T03:52:41.078Z,70.25
2019-02-14T03:55:10.398Z,70.96
2019-02-14T03:57:40.030Z,70.77
2019-02-14T04:00:11.813Z,71.27
2019-02-14T04:02:41.068Z,71.27
2019-02-14T04:05:10.612Z,71.16
2019-02-14T04:07:40.020Z,70.75
2019-02-14T04:10:10.619Z,71.47
2019-02-14T04:12:39.874Z,71.47
2019-02-14T04:15:11.354Z,72.02
2019-02-14T04:17:41.513Z,72.02
2019-02-14T04:20:11.815Z,72.01
2019-02-14T04:22:42.380Z,72.01
2019-02-14T04:25:15.216Z,72.33
2019-02-14T04:27:52.748Z,72.36
2019-02-14T04:30:24.916Z,73.94
2019-02-14T04:32:54.350Z,74.21
2019-02-14T04:35:23.598Z,74.21
2019-02-14T04:37:54.926Z,73.35
2019-02-14T04:40:33.457Z,73.16
2019-02-14T04:42:57.491Z,73.23
2019-02-14T04:45:26.737Z,73.23
2019-02-14T04:47:55.968Z,72.98
2019-02-14T04:50:25.177Z,73.63
2019-02-14T04:52:54.481Z,72.93
2019-02-14T04:55:24.428Z,72.93
2019-02-14T04:57:53.740Z,72.97
2019-02-14T05:00:23.311Z,72.88
2019-02-14T05:02:52.530Z,72.88
2019-02-14T05:05:21.815Z,73.14
2019-02-14T05:07:51.080Z,73.84
2019-02-14T05:10:20.640Z,73.84
2019-02-14T05:12:49.863Z,73.42
2019-02-14T05:15:19.158Z,73.29
2019-02-14T05:17:48.791Z,73.29
2019-02-14T05:20:18.043Z,72.97
2019-02-14T05:22:47.432Z,72.78
2019-02-14T05:25:16.649Z,73.25
2019-02-14T05:27:46.257Z,73.25
2019-02-14T05:30:16.452Z,74.25
2019-02-14T05:32:45.671Z,73.56
2019-02-14T05:35:14.899Z,73.56
2019-02-14T05:37:45.536Z,73.73
2019-02-14T05:40:15.081Z,73.73
2019-02-14T05:42:44.509Z,73.01
2019-02-14T05:45:13.752Z,72.97
2019-02-14T05:47:42.975Z,73.04
2019-02-14T05:50:12.975Z,73.04
2019-02-14T05:52:42.231Z,73.25
2019-02-14T05:55:11.565Z,73.07
2019-02-14T05:57:40.846Z,72.86
2019-02-14T06:00:12.473Z,72.21
2019-02-14T06:02:41.842Z,72.21
2019-02-14T06:05:11.847Z,72.41
2019-02-14T06:07:41.167Z,72.61
2019-02-14T06:10:14.240Z,72.61
2019-02-14T06:12:43.488Z,72.86
2019-02-14T06:15:13.058Z,73.22
2019-02-14T06:17:42.618Z,72.65
2019-02-14T06:20:12.448Z,72.43
2019-02-14T06:22:42.419Z,72.43
2019-02-14T06:25:12.076Z,72.41
2019-02-14T06:27:41.335Z,72.41
2019-02-14T06:30:12.816Z,72.87
2019-02-14T06:32:41.989Z,73.12
2019-02-14T06:38:29.501Z,73.19
2019-02-14T06:40:58.813Z,74.00
2019-02-14T06:43:28.180Z,72.98
2019-02-14T06:46:00.517Z,73.07
2019-02-14T06:48:29.912Z,73.07
2019-02-14T06:50:59.153Z,73.47
2019-02-14T06:53:29.268Z,73.47
2019-02-14T06:55:59.083Z,73.39
2019-02-14T06:58:34.083Z,73.88
2019-02-14T07:01:06.890Z,73.88
2019-02-14T07:03:36.147Z,73.49
2019-02-14T07:06:08.375Z,73.59
2019-02-14T07:08:37.986Z,73.59
2019-02-14T07:11:07.240Z,73.72
2019-02-14T07:13:36.558Z,73.72
2019-02-14T07:16:10.407Z,74.14
2019-02-14T07:22:40.448Z,74.34
2019-02-14T07:25:10.088Z,74.31
2019-02-14T07:27:39.382Z,73.74
2019-02-14T07:30:12.266Z,73.44
2019-02-14T07:32:41.691Z,72.89
2019-02-14T07:35:11.746Z,72.89
2019-02-14T07:37:41.061Z,72.89
2019-02-14T07:40:11.826Z,72.68
2019-02-14T07:42:52.396Z,72.64
2019-02-14T07:45:30.033Z,72.45
2019-02-14T07:48:05.968Z,71.14
2019-02-14T07:50:35.510Z,70.02
2019-02-14T07:53:04.968Z,69.59
2019-02-14T07:55:35.163Z,68.68
2019-02-14T07:58:06.729Z,67.63
2019-02-14T08:00:36.051Z,65.77
2019-02-14T08:03:05.674Z,64.65
2019-02-14T08:05:34.982Z,62.40
2019-02-14T08:08:07.457Z,61.06
2019-02-14T08:10:37.111Z,58.55
2019-02-14T08:13:06.400Z,57.25
2019-02-14T08:15:35.633Z,55.39
2019-02-14T08:18:06.023Z,52.81
2019-02-14T08:20:35.322Z,51.18
2019-02-14T08:23:04.606Z,50.16
2019-02-14T08:25:34.202Z,49.79
2019-02-14T08:28:04.383Z,49.63
2019-02-14T08:30:34.082Z,48.99
2019-02-14T08:33:03.737Z,49.31
2019-02-14T08:35:32.992Z,49.40
2019-02-14T08:38:05.102Z,48.90
2019-02-14T08:40:34.716Z,49.51
2019-02-14T08:43:03.963Z,51.08
2019-02-14T08:45:33.196Z,52.15
2019-02-14T08:48:04.769Z,53.22
2019-02-14T08:50:34.926Z,54.14
2019-02-14T08:53:04.229Z,54.95
2019-02-14T08:55:33.965Z,55.66
2019-02-14T08:58:04.092Z,55.95
2019-02-14T09:00:33.440Z,56.81
2019-02-14T09:03:03.115Z,57.47
2019-02-14T09:05:32.628Z,58.05
2019-02-14T09:08:03.599Z,58.80
2019-02-14T09:10:33.268Z,58.75
2019-02-14T09:13:02.925Z,58.95
2019-02-14T09:15:32.256Z,59.04
2019-02-14T09:18:02.968Z,59.06
2019-02-14T09:20:32.191Z,58.84
2019-02-14T09:23:01.690Z,58.98
2019-02-14T09:25:31.732Z,58.91
2019-02-14T09:28:01.393Z,59.32
2019-02-14T09:30:31.138Z,58.66
2019-02-14T09:33:00.993Z,56.94
2019-02-14T09:35:30.331Z,54.77
2019-02-14T09:38:03.399Z,53.35
2019-02-14T09:40:30.926Z,51.87
2019-02-14T09:43:00.197Z,50.96
2019-02-14T09:45:29.708Z,49.35
2019-02-14T09:48:00.414Z,48.75
2019-02-14T09:50:31.553Z,46.67
2019-02-14T09:53:01.909Z,45.72
2019-02-14T09:55:31.756Z,44.53
2019-02-14T09:58:05.652Z,43.34
2019-02-14T10:00:35.350Z,42.47
2019-02-14T10:03:04.894Z,42.30
2019-02-14T10:05:34.176Z,41.51
2019-02-14T10:08:12.557Z,40.60
2019-02-14T10:10:37.614Z,39.71
2019-02-14T10:13:07.003Z,39.55
2019-02-14T10:15:36.289Z,39.48
2019-02-14T10:18:15.186Z,39.72
2019-02-14T10:20:46.708Z,40.58
2019-02-14T10:23:15.937Z,40.27
2019-02-14T10:25:45.513Z,40.02
2019-02-14T10:28:14.817Z,40.24
2019-02-14T10:30:44.071Z,40.64
2019-02-14T10:33:13.698Z,41.46
2019-02-14T10:35:43.037Z,42.28
2019-02-14T10:38:21.731Z,41.75
2019-02-14T10:40:43.983Z,40.88
2019-02-14T10:43:13.689Z,39.47
2019-02-14T10:45:43.418Z,37.93
2019-02-14T10:48:13.663Z,37.10
2019-02-14T10:50:43.022Z,36.01
2019-02-14T10:53:12.569Z,35.51
2019-02-14T10:55:43.065Z,34.85
2019-02-14T10:58:12.686Z,34.77
2019-02-14T11:00:42.103Z,35.54
2019-02-14T11:03:11.805Z,35.59
2019-02-14T11:05:41.068Z,34.77
2019-02-14T11:08:10.993Z,33.34
2019-02-14T11:10:40.530Z,32.70
2019-02-14T11:13:09.877Z,32.20
2019-02-14T11:15:39.178Z,31.22
2019-02-14T11:18:08.808Z,30.35
2019-02-14T11:20:38.098Z,29.46
2019-02-14T11:23:07.310Z,29.59
2019-02-14T11:25:40.194Z,29.15
2019-02-14T11:28:10.091Z,29.82
2019-02-14T11:30:39.342Z,31.08
2019-02-14T11:33:08.884Z,32.06
2019-02-14T11:35:38.166Z,32.46
2019-02-14T11:38:07.443Z,32.28
2019-02-14T11:40:36.973Z,31.67
2019-02-14T11:43:06.598Z,30.96
2019-02-14T11:45:35.862Z,30.38
2019-02-14T11:48:06.518Z,29.90
2019-02-14T11:50:35.934Z,29.78
2019-02-14T11:53:14.022Z,29.88
2019-02-14T11:55:36.785Z,30.46
2019-02-14T11:58:07.008Z,30.28
2019-02-14T12:00:36.263Z,29.97
2019-02-14T12:03:05.938Z,29.49
2019-02-14T12:05:35.221Z,28.95
2019-02-14T12:08:09.457Z,28.21
2019-02-14T12:10:39.972Z,28.26
2019-02-14T12:13:09.222Z,28.62
2019-02-14T12:15:38.469Z,28.69
2019-02-14T12:18:08.070Z,28.72
2019-02-14T12:20:37.437Z,28.89
2019-02-14T12:23:06.690Z,28.83
2019-02-14T12:25:36.316Z,29.47
2019-02-14T12:28:08.374Z,29.87
2019-02-14T12:30:37.792Z,30.04
2019-02-14T12:33:07.485Z,30.35
2019-02-14T12:35:36.734Z,30.76
2019-02-14T12:38:06.419Z,30.75
2019-02-14T12:40:36.093Z,31.11
2019-02-14T12:43:05.373Z,31.00
2019-02-14T12:45:34.640Z,31.18
2019-02-14T12:48:05.275Z,31.45
2019-02-14T12:50:35.848Z,30.93
2019-02-14T12:53:05.430Z,30.39
2019-02-14T12:55:35.083Z,29.79
2019-02-14T12:58:06.132Z,30.03
2019-02-14T13:00:35.549Z,30.45
2019-02-14T13:03:05.548Z,30.57
2019-02-14T13:05:34.838Z,31.12
2019-02-14T13:08:05.422Z,31.20
2019-02-14T13:10:35.122Z,31.12
2019-02-14T13:13:04.674Z,30.75
2019-02-14T13:15:34.001Z,30.16
2019-02-14T13:18:08.183Z,29.42
2019-02-14T13:20:37.532Z,28.73
2019-02-14T13:23:07.604Z,28.96
2019-02-14T13:25:37.525Z,29.64
2019-02-14T13:28:06.972Z,30.48
2019-02-14T13:30:36.306Z,31.66
2019-02-14T13:33:05.940Z,32.44
2019-02-14T13:35:35.223Z,33.11
2019-02-14T13:38:05.423Z,33.78
2019-02-14T13:40:35.146Z,35.14
2019-02-14T13:43:05.131Z,36.36
2019-02-14T13:45:34.383Z,36.97
2019-02-14T13:48:05.606Z,37.48
2019-02-14T13:50:34.863Z,36.85
2019-02-14T13:53:04.601Z,36.71
2019-02-14T13:55:34.457Z,36.43
2019-02-14T13:58:04.945Z,36.48
2019-02-14T14:00:34.276Z,36.85
2019-02-14T14:03:05.800Z,36.80
2019-02-14T14:05:35.254Z,37.13
2019-02-14T14:08:05.879Z,37.50
2019-02-14T14:10:35.461Z,37.48
2019-02-14T14:13:04.932Z,37.56
2019-02-14T14:15:34.168Z,37.73
2019-02-14T14:18:04.721Z,37.74
2019-02-14T14:20:34.177Z,38.38
2019-02-14T14:23:03.962Z,38.66
2019-02-14T14:25:33.858Z,38.98
2019-02-14T14:28:04.040Z,38.75
2019-02-14T14:30:33.314Z,39.00
2019-02-14T14:33:03.188Z,38.88
2019-02-14T14:35:32.747Z,39.00
2019-02-14T14:41:15.034Z,39.33
2019-02-14T14:44:05.791Z,39.73
2019-02-14T14:46:56.913Z,39.82
2019-02-14T14:49:26.506Z,40.08
2019-02-14T14:51:55.770Z,40.54
2019-02-14T14:54:26.043Z,40.42
2019-02-14T14:57:13.368Z,40.60
2019-02-14T14:59:43.773Z,41.00
2019-02-14T15:02:15.661Z,41.10
2019-02-14T15:04:45.438Z,41.47
2019-02-14T15:07:17.025Z,41.49
2019-02-14T15:09:47.044Z,41.79
2019-02-14T15:12:17.347Z,41.87
2019-02-14T15:14:49.706Z,42.15
2019-02-14T15:17:19.133Z,42.52
2019-02-14T15:19:48.524Z,42.92
2019-02-14T15:22:18.357Z,43.59
2019-02-14T15:24:48.402Z,43.99
2019-02-14T15:27:17.807Z,44.29
2019-02-14T15:29:49.672Z,44.79
2019-02-14T15:32:19.034Z,45.01
2019-02-14T15:34:48.448Z,45.11
2019-02-14T15:37:18.564Z,45.35
2019-02-14T15:39:48.221Z,45.86
2019-02-14T15:42:18.340Z,46.37
2019-02-14T15:44:48.006Z,46.41
2019-02-14T15:47:17.812Z,46.48
2019-02-14T15:49:49.350Z,46.57
2019-02-14T15:52:18.990Z,46.84
2019-02-14T15:54:48.245Z,46.51
2019-02-14T15:57:18.767Z,46.42
2019-02-14T15:59:49.355Z,46.30
2019-02-14T16:02:18.623Z,46.40
2019-02-14T16:04:48.216Z,46.54
2019-02-14T16:07:18.530Z,46.92
2019-02-14T16:09:48.817Z,47.24
2019-02-14T16:12:20.121Z,47.88
2019-02-14T16:14:49.860Z,48.46
2019-02-14T16:17:19.236Z,48.86
2019-02-14T16:19:49.034Z,49.29
2019-02-14T16:22:19.550Z,49.73
2019-02-14T16:24:51.297Z,50.13
2019-02-14T16:27:22.585Z,50.57
2019-02-14T16:29:52.552Z,50.88
2019-02-14T16:32:21.931Z,51.07
2019-02-14T16:34:51.771Z,51.24
2019-02-14T16:37:22.282Z,50.97
2019-02-14T16:39:54.116Z,51.16
2019-02-14T16:42:23.354Z,50.98
2019-02-14T16:44:54.437Z,51.25
2019-02-14T16:47:23.790Z,51.38
2019-02-14T16:49:57.144Z,51.49
2019-02-14T16:52:26.977Z,51.49
2019-02-14T16:54:56.340Z,51.39
2019-02-14T16:57:32.569Z,51.21
2019-02-14T17:00:05.108Z,51.07
2019-02-14T17:02:35.895Z,51.12
2019-02-14T17:05:07.182Z,51.07
2019-02-14T17:07:36.683Z,51.24
2019-02-14T17:10:10.560Z,51.47
2019-02-14T17:12:45.363Z,51.61
2019-02-14T17:15:18.329Z,51.90
2019-02-14T17:17:47.779Z,52.02
2019-02-14T17:20:17.426Z,52.34
2019-02-14T17:22:47.016Z,52.48
2019-02-14T17:32:25.854Z,53.37
2019-02-14T17:34:58.109Z,53.85
2019-02-14T17:37:28.848Z,54.34
2019-02-14T17:40:11.230Z,54.71
2019-02-14T17:42:40.832Z,55.04
2019-02-14T17:45:15.197Z,55.37
2019-02-14T17:47:47.351Z,55.68
2019-02-14T17:50:17.611Z,55.99
2019-02-14T17:52:49.621Z,56.27
2019-02-14T17:55:19.794Z,56.45
2019-02-14T17:57:51.035Z,56.57
2019-02-14T18:00:21.592Z,56.84
2019-02-14T18:02:56.284Z,57.05
2019-02-14T18:05:26.758Z,57.31
2019-02-14T18:07:58.197Z,57.92
2019-02-14T18:10:30.388Z,57.92
2019-02-14T18:13:01.358Z,57.98
2019-02-14T18:15:31.912Z,58.04
2019-02-14T18:18:05.997Z,58.34
2019-02-14T18:20:43.690Z,58.68
2019-02-14T18:23:13.991Z,58.69
2019-02-14T18:25:44.666Z,58.89
2019-02-14T18:28:15.630Z,59.26
2019-02-14T18:30:46.207Z,59.24
2019-02-14T18:33:16.691Z,59.30
2019-02-14T18:35:48.092Z,59.46
2019-02-14T18:38:19.870Z,59.50
2019-02-14T18:40:50.297Z,59.88
2019-02-14T18:43:20.087Z,59.74
2019-02-14T18:45:50.495Z,59.80
2019-02-14T18:48:28.428Z,59.99
2019-02-14T18:50:59.217Z,60.39
2019-02-14T18:53:29.353Z,60.31
2019-02-14T18:55:59.677Z,60.31
2019-02-14T18:58:30.794Z,60.36
2019-02-14T19:01:00.602Z,60.40
2019-02-14T19:03:30.902Z,60.44
2019-02-14T19:06:00.980Z,60.54
2019-02-14T19:08:31.264Z,60.91
2019-02-14T19:11:01.354Z,61.05
2019-02-14T19:13:31.704Z,61.10
2019-02-14T19:16:02.974Z,61.08
2019-02-14T19:18:32.955Z,61.36
2019-02-14T19:21:04.823Z,61.26
2019-02-14T19:23:35.937Z,61.36
2019-02-14T19:26:07.614Z,61.36
2019-02-14T19:28:37.796Z,61.47
2019-02-14T19:31:07.889Z,61.66
2019-02-14T19:33:38.316Z,61.74
2019-02-14T19:36:08.724Z,61.85
2019-02-14T19:38:39.136Z,61.97
2019-02-14T19:41:09.619Z,62.27
2019-02-14T19:43:39.678Z,62.28
2019-02-14T19:46:09.620Z,62.52
2019-02-14T19:48:39.466Z,62.51
2019-02-14T19:51:11.673Z,62.64
2019-02-14T19:53:41.517Z,62.81
2019-02-14T19:56:11.673Z,62.87
2019-02-14T19:58:42.208Z,63.19
2019-02-14T20:01:11.890Z,63.12
2019-02-14T20:03:41.631Z,63.25
2019-02-14T20:06:12.303Z,63.60
2019-02-14T20:08:42.006Z,63.42
2019-02-14T20:11:11.918Z,63.60
2019-02-14T20:13:49.365Z,63.74
2019-02-14T20:16:15.126Z,63.87
2019-02-14T20:18:45.305Z,64.36
2019-02-14T20:21:15.876Z,64.35
2019-02-14T20:23:45.850Z,64.43
2019-02-14T20:26:15.537Z,64.47
2019-02-14T20:31:27.509Z,64.56
2019-02-14T20:33:57.226Z,64.55
2019-02-14T20:36:27.417Z,64.51
2019-02-14T20:38:57.450Z,64.60
2019-02-14T20:41:27.240Z,64.98
2019-02-14T20:43:59.578Z,64.53
2019-02-14T20:46:29.367Z,64.71
2019-02-14T20:48:59.038Z,64.83
2019-02-14T20:51:38.084Z,64.77
2019-02-14T20:54:00.741Z,65.09
2019-02-14T20:56:31.831Z,65.11
2019-02-14T20:59:01.856Z,65.49
2019-02-14T21:01:31.635Z,65.48
2019-02-14T21:04:01.384Z,65.38
2019-02-14T21:06:32.177Z,65.49
2019-02-14T21:09:01.900Z,65.17
2019-02-14T21:11:31.787Z,65.50
2019-02-14T21:14:03.793Z,65.31
2019-02-14T21:16:33.247Z,65.54
2019-02-14T21:19:03.188Z,66.15
2019-02-14T21:21:32.897Z,65.79
2019-02-14T21:24:04.379Z,66.19
2019-02-14T21:26:34.466Z,66.25
2019-02-14T21:29:06.353Z,66.26
2019-02-14T21:31:36.082Z,66.10
2019-02-14T21:34:09.295Z,66.61
2019-02-14T21:36:38.895Z,66.19
2019-02-14T21:39:08.835Z,66.18
2019-02-14T21:41:38.691Z,66.10
2019-02-14T21:44:08.293Z,66.00
2019-02-14T21:46:46.982Z,66.03
2019-02-14T21:49:25.341Z,66.49
2019-02-14T21:51:55.256Z,65.96
2019-02-14T21:54:25.324Z,66.46
2019-02-14T21:56:54.979Z,66.08
2019-02-14T21:59:24.288Z,65.87
2019-02-14T22:01:54.224Z,66.09
2019-02-14T22:04:23.777Z,65.92
2019-02-14T22:06:53.223Z,65.52
2019-02-14T22:09:22.995Z,65.64
2019-02-14T22:11:52.264Z,65.52
2019-02-14T22:14:21.814Z,65.95
2019-02-14T22:16:51.465Z,65.55
2019-02-14T22:19:23.783Z,65.47
2019-02-14T22:21:53.144Z,65.30
2019-02-14T22:24:22.658Z,65.27
2019-02-14T22:26:51.900Z,65.56
2019-02-14T22:29:21.178Z,65.33
2019-02-14T22:31:50.917Z,65.84
2019-02-14T22:34:20.202Z,65.42
2019-02-14T22:36:49.589Z,65.47
2019-02-14T22:39:19.283Z,65.53
2019-02-14T22:41:48.591Z,65.68
2019-02-14T22:44:17.834Z,65.48
2019-02-14T22:46:47.433Z,65.27
2019-02-14T22:49:16.674Z,65.16
2019-02-14T22:51:46.072Z,65.41
2019-02-14T22:54:15.742Z,65.07
2019-02-14T22:56:45.156Z,65.09
2019-02-14T22:59:14.471Z,65.00
2019-02-14T23:01:45.122Z,65.05
2019-02-14T23:04:14.448Z,65.00
2019-02-14T23:06:43.721Z,65.02
2019-02-14T23:09:17.320Z,65.10
2019-02-14T23:11:49.656Z,65.18
2019-02-14T23:14:20.187Z,65.25
2019-02-14T23:16:49.464Z,65.21
2019-02-14T23:19:18.839Z,65.44
2019-02-14T23:21:48.405Z,65.49
2019-02-14T23:24:17.625Z,65.69
2019-02-14T23:26:47.036Z,66.12
2019-02-14T23:29:16.662Z,65.78
2019-02-14T23:31:45.942Z,65.72
2019-02-14T23:34:15.243Z,66.00
2019-02-14T23:36:44.781Z,66.13
2019-02-14T23:39:14.026Z,66.33
2019-02-14T23:41:45.536Z,66.72
2019-02-14T23:44:14.893Z,66.69
2019-02-14T23:46:46.303Z,67.08
2019-02-14T23:49:15.673Z,67.09
2019-02-14T23:51:46.716Z,67.06
2019-02-14T23:54:16.228Z,67.17
2019-02-14T23:56:45.507Z,67.27
2019-02-14T23:59:15.028Z,67.78
